Thunder radar more information blitzortung!


Radar de pluja more information rain snow radar


Visita la nostra xarxa de llocs de meteo:

Template documentation
and downloads

And another site



No particular awareness of the weather is required.    There are no Weather-warnings

Pagina Historial Weather Underground text

Diari Resum Setembre 20, 2017 Unitats:  Mètric    Imperial   Tant
« Previous Dia
SegĂźent Dia »
Diari Setmana Mensual Anual Personalitzada
  Maxima: Minima: Media:
Temperatura: 22.9 °C 11.7 °C 18.4 °C
Punt de rosada: 12.7 °C 6.7 °C 9.4 °C
Humitat: 76 % 44 % 57 %
Wind Speed: 16.7 km/h 0.0 km/h 5.8 km/h
RĂ fegues de vent: 16.7 km/h - -
Vent:- - ESE
Pression baro: 1020.9 hPa 1016.8 hPa -
Precipitacions: 0.0 mm    
Historical Graphs
 
 
Dades de taula per Setembre 20, 2017
Temps Temperatura Punt de rosada Pression baro Vent Wind Speed RĂ fegues de vent Humitat Rainfall Rate (Hourly)
00:00 13.2 °C 8.7 °C 1019.9 hPa Calm   3.2 km/h 74 % 0.0 mm
00:02 16.1 °C 9.3 °C 1019.9 hPa Calm     64 % 0.0 mm
00:10 13.2 °C 8.7 °C 1019.9 hPa NNW 1.6 km/h 4.8 km/h 74 % 0.0 mm
00:20 13.0 °C 8.4 °C 1019.9 hPa NW 1.6 km/h 3.2 km/h 74 % 0.0 mm
00:30 13.3 °C 8.6 °C 1019.9 hPa NNE 8.0 km/h 8.0 km/h 73 % 0.0 mm
00:40 13.7 °C 8.7 °C 1019.9 hPa NNE 8.0 km/h 11.3 km/h 72 % 0.0 mm
00:50 13.5 °C 8.6 °C 1019.9 hPa NNE 4.8 km/h 8.0 km/h 72 % 0.0 mm
01:00 13.4 °C 8.7 °C 1018.8 hPa NNE 9.7 km/h 9.7 km/h 73 % 0.0 mm
01:10 13.2 °C 8.4 °C 1019.9 hPa NNE 3.2 km/h 8.0 km/h 73 % 0.0 mm
01:20 12.9 °C 8.2 °C 1019.9 hPa NNE 4.8 km/h 6.4 km/h 73 % 0.0 mm
01:30 12.7 °C 8.0 °C 1019.9 hPa Calm   6.4 km/h 73 % 0.0 mm
01:40 12.4 °C 7.9 °C 1019.9 hPa Calm   1.6 km/h 74 % 0.0 mm
01:50 12.1 °C 7.6 °C 1019.9 hPa Calm   3.2 km/h 74 % 0.0 mm
02:00 11.9 °C 7.4 °C 1019.9 hPa SW 3.2 km/h 3.2 km/h 74 % 0.0 mm
02:10 12.1 °C 7.8 °C 1019.9 hPa WSW 1.6 km/h 1.6 km/h 75 % 0.0 mm
02:20 12.1 °C 8.0 °C 1019.9 hPa Calm   1.6 km/h 76 % 0.0 mm
02:30 12.0 °C 7.9 °C 1020.9 hPa Calm     76 % 0.0 mm
02:40 11.9 °C 7.8 °C 1018.8 hPa Calm   1.6 km/h 76 % 0.0 mm
02:50 11.8 °C 7.7 °C 1018.8 hPa Calm   1.6 km/h 76 % 0.0 mm
03:00 11.7 °C 7.4 °C 1019.9 hPa Calm   3.2 km/h 75 % 0.0 mm
03:10 11.7 °C 7.4 °C 1018.8 hPa Calm   1.6 km/h 75 % 0.0 mm
03:20 12.2 °C 7.7 °C 1018.8 hPa Calm     74 % 0.0 mm
03:30 13.0 °C 8.7 °C 1019.9 hPa SW 1.6 km/h 3.2 km/h 75 % 0.0 mm
03:40 12.9 °C 8.2 °C 1019.9 hPa ENE 1.6 km/h 4.8 km/h 73 % 0.0 mm
03:50 13.4 °C 8.4 °C 1019.9 hPa NE 4.8 km/h 6.4 km/h 72 % 0.0 mm
04:00 14.0 °C 8.6 °C 1020.9 hPa NNE 1.6 km/h 4.8 km/h 70 % 0.0 mm
04:10 14.7 °C 8.8 °C 1019.9 hPa NNE 1.6 km/h 3.2 km/h 68 % 0.0 mm
04:20 14.5 °C 8.2 °C 1019.9 hPa North 1.6 km/h 3.2 km/h 66 % 0.0 mm
04:30 14.4 °C 8.1 °C 1019.9 hPa NNE 4.8 km/h 6.4 km/h 66 % 0.0 mm
04:40 14.2 °C 7.5 °C 1019.9 hPa NNE 4.8 km/h 6.4 km/h 64 % 0.0 mm
04:50 14.7 °C 8.2 °C 1019.9 hPa Calm   6.4 km/h 65 % 0.0 mm
05:00 15.6 °C 9.1 °C 1019.9 hPa NE 3.2 km/h 4.8 km/h 65 % 0.0 mm
05:10 15.9 °C 9.1 °C 1019.9 hPa NE 3.2 km/h 4.8 km/h 64 % 0.0 mm
05:20 16.4 °C 9.3 °C 1019.9 hPa NE 3.2 km/h 6.4 km/h 63 % 0.0 mm
10:30 17.5 °C 9.7 °C 1019.9 hPa NNE 5.6 km/h 5.6 km/h 60 % 0.0 mm
10:35 17.4 °C 9.3 °C 1019.9 hPa NNE 7.4 km/h 7.4 km/h 59 % 0.0 mm
10:40 17.7 °C 9.6 °C 1019.9 hPa ENE 5.6 km/h 5.6 km/h 59 % 0.0 mm
10:45 18.2 °C 10.1 °C 1019.9 hPa NNE 6.4 km/h 6.4 km/h 59 % 0.0 mm
10:50 18.4 °C 10.0 °C 1019.9 hPa NNE 7.9 km/h 7.9 km/h 58 % 0.0 mm
10:55 18.3 °C 9.6 °C 1019.9 hPa NNE 7.4 km/h 7.4 km/h 57 % 0.0 mm
11:00 18.3 °C 9.6 °C 1019.9 hPa NNE 7.4 km/h 7.4 km/h 57 % 0.0 mm
11:05 18.6 °C 10.2 °C 1020.9 hPa NNE 7.4 km/h 7.4 km/h 58 % 0.0 mm
11:10 18.7 °C 10.3 °C 1020.9 hPa ESE 9.3 km/h 9.3 km/h 58 % 0.0 mm
11:15 18.6 °C 10.2 °C 1020.9 hPa ESE 6.9 km/h 6.9 km/h 58 % 0.0 mm
11:20 18.6 °C 10.2 °C 1019.9 hPa ENE 9.3 km/h 9.3 km/h 58 % 0.0 mm
11:25 19.2 °C 10.7 °C 1019.9 hPa NNE 3.9 km/h 3.9 km/h 58 % 0.0 mm
11:30 19.4 °C 10.9 °C 1019.9 hPa East 9.3 km/h 9.3 km/h 58 % 0.0 mm
11:35 19.2 °C 11.0 °C 1019.9 hPa ENE 8.7 km/h 8.7 km/h 59 % 0.0 mm
11:40 19.4 °C 11.2 °C 1019.9 hPa NNE 5.6 km/h 6.1 km/h 59 % 0.0 mm
11:45 19.5 °C 11.5 °C 1019.9 hPa NNE 9.5 km/h 9.5 km/h 60 % 0.0 mm
11:50 19.6 °C 11.4 °C 1019.9 hPa SSE 9.3 km/h 9.3 km/h 59 % 0.0 mm
11:55 20.0 °C 11.7 °C 1019.9 hPa ESE 9.3 km/h 9.3 km/h 59 % 0.0 mm
12:00 20.0 °C 11.5 °C 1019.9 hPa NNE 11.1 km/h 11.1 km/h 58 % 0.0 mm
12:05 20.0 °C 11.7 °C 1019.9 hPa East 16.7 km/h 16.7 km/h 59 % 0.0 mm
12:10 20.1 °C 11.8 °C 1019.9 hPa SE 14.8 km/h 14.8 km/h 59 % 0.0 mm
12:11 20.1 °C 11.8 °C 1019.9 hPa ESE 13.0 km/h 13.0 km/h 59 % 0.0 mm
12:16 20.2 °C 11.7 °C 1019.9 hPa ENE 9.3 km/h 9.3 km/h 58 % 0.0 mm
12:21 20.5 °C 11.9 °C 1019.9 hPa NE 11.1 km/h 11.1 km/h 58 % 0.0 mm
12:26 20.5 °C 11.9 °C 1019.9 hPa SSE 7.4 km/h 7.4 km/h 58 % 0.0 mm
12:31 20.8 °C 12.2 °C 1019.9 hPa ENE 7.4 km/h 7.4 km/h 58 % 0.0 mm
12:36 20.9 °C 12.3 °C 1018.8 hPa SE 7.4 km/h 7.4 km/h 58 % 0.0 mm
12:41 20.7 °C 11.9 °C 1018.8 hPa SSE 9.5 km/h 9.5 km/h 57 % 0.0 mm
12:46 21.6 °C 12.7 °C 1018.8 hPa SSW 9.3 km/h 9.3 km/h 57 % 0.0 mm
12:51 21.0 °C 11.6 °C 1019.9 hPa ESE 11.1 km/h 11.1 km/h 55 % 0.0 mm
12:56 20.5 °C 11.4 °C 1019.9 hPa ESE 9.3 km/h 9.3 km/h 56 % 0.0 mm
13:01 20.8 °C 11.7 °C 1019.9 hPa SSE 6.4 km/h 6.4 km/h 56 % 0.0 mm
13:06 21.0 °C 11.9 °C 1019.9 hPa West 9.3 km/h 9.3 km/h 56 % 0.0 mm
13:11 20.8 °C 11.4 °C 1019.9 hPa ENE 5.6 km/h 5.6 km/h 55 % 0.0 mm
13:16 21.3 °C 11.9 °C 1019.9 hPa East 9.3 km/h 9.3 km/h 55 % 0.0 mm
13:21 21.3 °C 11.3 °C 1019.9 hPa WSW 9.3 km/h 9.3 km/h 53 % 0.0 mm
13:26 21.4 °C 11.4 °C 1019.9 hPa ENE 10.3 km/h 10.3 km/h 53 % 0.0 mm
13:31 21.6 °C 11.9 °C 1019.9 hPa ESE 14.8 km/h 14.8 km/h 54 % 0.0 mm
13:36 21.6 °C 11.6 °C 1019.9 hPa ESE 11.1 km/h 11.1 km/h 53 % 0.0 mm
13:41 21.7 °C 11.4 °C 1019.9 hPa SE 13.0 km/h 13.0 km/h 52 % 0.0 mm
13:46 22.0 °C 12.0 °C 1019.9 hPa ESE 14.8 km/h 14.8 km/h 53 % 0.0 mm
13:51 22.3 °C 11.9 °C 1019.9 hPa ESE 9.3 km/h 9.3 km/h 52 % 0.0 mm
13:56 21.7 °C 11.4 °C 1019.9 hPa ESE 13.0 km/h 13.0 km/h 52 % 0.0 mm
14:01 21.3 °C 11.1 °C 1019.9 hPa East 11.1 km/h 11.1 km/h 52 % 0.0 mm
14:02 21.5 °C 11.2 °C 1019.9 hPa NNE 9.3 km/h 9.3 km/h 52 % 0.0 mm
14:07 21.7 °C 11.4 °C 1018.8 hPa ENE 11.1 km/h 11.1 km/h 52 % 0.0 mm
14:12 22.0 °C 11.7 °C 1018.8 hPa ENE 13.0 km/h 13.0 km/h 52 % 0.0 mm
14:17 22.4 °C 12.1 °C 1018.8 hPa ESE 9.3 km/h 9.3 km/h 52 % 0.0 mm
14:22 22.1 °C 11.5 °C 1019.9 hPa ENE 9.3 km/h 9.3 km/h 51 % 0.0 mm
14:27 22.3 °C 11.7 °C 1019.9 hPa East 13.0 km/h 13.0 km/h 51 % 0.0 mm
14:32 22.6 °C 11.9 °C 1019.9 hPa NNE 9.5 km/h 9.5 km/h 51 % 0.0 mm
14:37 22.6 °C 11.9 °C 1018.8 hPa ESE 7.6 km/h 7.6 km/h 51 % 0.0 mm
14:42 22.3 °C 11.4 °C 1018.8 hPa South 13.0 km/h 13.0 km/h 50 % 0.0 mm
14:47 22.5 °C 11.6 °C 1018.8 hPa SE 14.8 km/h 14.8 km/h 50 % 0.0 mm
14:52 22.1 °C 10.9 °C 1018.8 hPa SSE 13.0 km/h 13.0 km/h 49 % 0.0 mm
14:57 22.6 °C 11.3 °C 1018.8 hPa SW 9.3 km/h 9.3 km/h 49 % 0.0 mm
15:02 22.9 °C 11.6 °C 1018.8 hPa East 6.4 km/h 6.4 km/h 49 % 0.0 mm
15:03 22.9 °C 11.6 °C 1018.8 hPa East 6.4 km/h 6.4 km/h 49 % 0.0 mm
15:08 22.6 °C 11.3 °C 1018.8 hPa ESE 13.0 km/h 13.0 km/h 49 % 0.0 mm
15:13 21.8 °C 10.6 °C 1018.8 hPa ESE 9.5 km/h 9.5 km/h 49 % 0.0 mm
15:18 22.3 °C 11.4 °C 1018.8 hPa ESE 9.5 km/h 9.5 km/h 50 % 0.0 mm
15:23 22.3 °C 11.1 °C 1018.8 hPa SE 10.0 km/h 10.0 km/h 49 % 0.0 mm
15:28 22.3 °C 11.1 °C 1018.8 hPa ENE 13.0 km/h 13.0 km/h 49 % 0.0 mm
15:33 22.3 °C 11.1 °C 1018.8 hPa ESE 11.1 km/h 11.1 km/h 49 % 0.0 mm
15:38 22.6 °C 11.3 °C 1017.8 hPa ENE 13.0 km/h 13.0 km/h 49 % 0.0 mm
15:43 22.7 °C 11.4 °C 1017.8 hPa South 7.4 km/h 7.4 km/h 49 % 0.0 mm
15:48 22.6 °C 11.3 °C 1017.8 hPa ESE 16.7 km/h 16.7 km/h 49 % 0.0 mm
15:53 22.2 °C 10.7 °C 1018.8 hPa SE 9.3 km/h 10.3 km/h 48 % 0.0 mm
15:58 22.3 °C 11.1 °C 1018.8 hPa ESE 13.0 km/h 13.0 km/h 49 % 0.0 mm
16:03 22.5 °C 11.2 °C 1018.8 hPa ESE 13.0 km/h 13.0 km/h 49 % 0.0 mm
16:08 22.6 °C 11.3 °C 1017.8 hPa East 12.2 km/h 12.2 km/h 49 % 0.0 mm
16:13 22.6 °C 11.3 °C 1017.8 hPa ENE 14.5 km/h 14.5 km/h 49 % 0.0 mm
16:18 22.5 °C 10.9 °C 1017.8 hPa ESE 13.0 km/h 13.0 km/h 48 % 0.0 mm
16:23 22.4 °C 10.8 °C 1017.8 hPa ENE 13.0 km/h 13.0 km/h 48 % 0.0 mm
16:28 22.5 °C 10.9 °C 1017.8 hPa ESE 12.2 km/h 12.2 km/h 48 % 0.0 mm
16:33 22.3 °C 11.1 °C 1017.8 hPa East 13.0 km/h 13.0 km/h 49 % 0.0 mm
16:38 22.2 °C 11.0 °C 1017.8 hPa ESE 11.1 km/h 11.1 km/h 49 % 0.0 mm
16:43 22.1 °C 10.9 °C 1017.8 hPa ENE 9.0 km/h 9.0 km/h 49 % 0.0 mm
16:48 22.5 °C 11.2 °C 1017.8 hPa ENE 10.3 km/h 10.3 km/h 49 % 0.0 mm
16:58 22.1 °C 10.6 °C 1016.8 hPa ESE 13.0 km/h 13.0 km/h 48 % 0.0 mm
17:03 22.0 °C 10.5 °C 1016.8 hPa SE 16.7 km/h 16.7 km/h 48 % 0.0 mm
17:08 22.1 °C 10.6 °C 1017.8 hPa ESE 13.0 km/h 13.0 km/h 48 % 0.0 mm
17:13 22.2 °C 10.7 °C 1017.8 hPa SSE 9.7 km/h 9.7 km/h 48 % 0.0 mm
17:18 22.4 °C 10.6 °C 1017.8 hPa ESE 13.0 km/h 13.0 km/h 47 % 0.0 mm
17:23 22.2 °C 10.3 °C 1018.8 hPa SW 11.1 km/h 11.1 km/h 47 % 0.0 mm
17:28 22.0 °C 10.2 °C 1018.8 hPa SSE 5.6 km/h 5.6 km/h 47 % 0.0 mm
17:33 22.2 °C 10.3 °C 1018.8 hPa ESE 9.7 km/h 9.7 km/h 47 % 0.0 mm
17:38 22.1 °C 9.9 °C 1017.8 hPa ESE 13.7 km/h 13.7 km/h 46 % 0.0 mm
17:43 21.9 °C 10.1 °C 1017.8 hPa SE 14.8 km/h 14.8 km/h 47 % 0.0 mm
17:48 22.0 °C 9.8 °C 1017.8 hPa ESE 9.3 km/h 9.3 km/h 46 % 0.0 mm
17:53 21.9 °C 9.8 °C 1017.8 hPa ESE 13.0 km/h 13.0 km/h 46 % 0.0 mm
17:58 21.8 °C 9.7 °C 1017.8 hPa ENE 13.0 km/h 13.0 km/h 46 % 0.0 mm
18:03 21.7 °C 9.6 °C 1017.8 hPa East 11.1 km/h 11.1 km/h 46 % 0.0 mm
18:08 21.7 °C 9.2 °C 1017.8 hPa East 9.3 km/h 9.7 km/h 45 % 0.0 mm
18:13 21.6 °C 9.2 °C 1017.8 hPa ESE 10.0 km/h 10.0 km/h 45 % 0.0 mm
18:18 21.5 °C 9.1 °C 1017.8 hPa East 11.4 km/h 11.4 km/h 45 % 0.0 mm
18:23 21.4 °C 8.6 °C 1016.8 hPa SE 13.0 km/h 13.0 km/h 44 % 0.0 mm
18:28 21.4 °C 8.6 °C 1016.8 hPa SE 9.3 km/h 9.3 km/h 44 % 0.0 mm
18:33 21.4 °C 8.6 °C 1016.8 hPa SE 11.1 km/h 11.1 km/h 44 % 0.0 mm
18:38 21.3 °C 8.6 °C 1016.8 hPa East 9.5 km/h 9.5 km/h 44 % 0.0 mm
18:43 21.2 °C 8.4 °C 1016.8 hPa SE 9.0 km/h 9.0 km/h 44 % 0.0 mm
18:48 21.1 °C 8.4 °C 1016.8 hPa ESE 9.3 km/h 9.3 km/h 44 % 0.0 mm
18:53 21.0 °C 8.3 °C 1017.8 hPa East 14.8 km/h 14.8 km/h 44 % 0.0 mm
18:58 20.9 °C 8.5 °C 1017.8 hPa ESE 11.1 km/h 11.1 km/h 45 % 0.0 mm
19:03 20.8 °C 8.4 °C 1017.8 hPa ESE 7.4 km/h 7.4 km/h 45 % 0.0 mm
19:08 20.7 °C 8.3 °C 1017.8 hPa East 6.9 km/h 6.9 km/h 45 % 0.0 mm
19:13 20.6 °C 8.2 °C 1017.8 hPa ESE 7.4 km/h 7.4 km/h 45 % 0.0 mm
19:18 20.5 °C 8.2 °C 1017.8 hPa ESE 5.3 km/h 5.3 km/h 45 % 0.0 mm
19:20 15.7 °C 8.9 °C 1017.8 hPa NNE 1.6 km/h 1.6 km/h 64 % 0.0 mm
19:23 20.5 °C 7.8 °C 1017.8 hPa ESE 7.4 km/h 7.4 km/h 44 % 0.0 mm
19:28 20.3 °C 7.7 °C 1017.8 hPa ESE 9.3 km/h 9.3 km/h 44 % 0.0 mm
19:30 15.8 °C 9.0 °C 1018.8 hPa Calm   3.2 km/h 64 % 0.0 mm
19:33 20.2 °C 7.6 °C 1017.8 hPa ESE 7.4 km/h 7.4 km/h 44 % 0.0 mm
19:38 20.1 °C 7.4 °C 1017.8 hPa ESE 3.7 km/h 3.7 km/h 44 % 0.0 mm
19:40 15.6 °C 9.1 °C 1017.8 hPa Calm   1.6 km/h 65 % 0.0 mm
19:43 20.0 °C 7.4 °C 1017.8 hPa SE 9.3 km/h 9.3 km/h 44 % 0.0 mm
19:48 19.9 °C 7.3 °C 1018.8 hPa NNE 4.2 km/h 4.2 km/h 44 % 0.0 mm
19:50 15.3 °C 8.5 °C 1017.8 hPa NW 1.6 km/h 1.6 km/h 64 % 0.0 mm
19:53 19.8 °C 7.2 °C 1018.8 hPa East 7.4 km/h 7.4 km/h 44 % 0.0 mm
19:58 19.6 °C 7.0 °C 1018.8 hPa East 5.6 km/h 5.6 km/h 44 % 0.0 mm
20:00 15.2 °C 8.4 °C 1017.8 hPa Calm     64 % 0.0 mm
20:03 19.5 °C 6.9 °C 1017.8 hPa East 7.4 km/h 7.4 km/h 44 % 0.0 mm
20:08 19.5 °C 6.9 °C 1017.8 hPa ENE 5.6 km/h 5.6 km/h 44 % 0.0 mm
20:10 15.1 °C 8.6 °C 1017.8 hPa NNE 1.6 km/h 3.2 km/h 65 % 0.0 mm
20:13 19.4 °C 6.8 °C 1017.8 hPa NE 2.3 km/h 2.3 km/h 44 % 0.0 mm
20:18 19.3 °C 6.7 °C 1017.8 hPa NNE 1.9 km/h 1.9 km/h 44 % 0.0 mm
20:20 14.7 °C 8.2 °C 1017.8 hPa NE 1.6 km/h 3.2 km/h 65 % 0.0 mm
20:23 19.2 °C 6.7 °C 1017.8 hPa Calm     44 % 0.0 mm
20:28 19.0 °C 6.8 °C 1017.8 hPa West 1.9 km/h 1.9 km/h 45 % 0.0 mm
20:30 14.6 °C 8.3 °C 1017.8 hPa Calm   1.6 km/h 66 % 0.0 mm
20:33 18.8 °C 6.9 °C 1017.8 hPa Calm     46 % 0.0 mm
20:38 18.9 °C 7.0 °C 1017.8 hPa Calm     46 % 0.0 mm
20:40 14.5 °C 8.2 °C 1017.8 hPa Calm     66 % 0.0 mm
20:48 18.6 °C 7.1 °C 1017.8 hPa NE 3.7 km/h 3.7 km/h 47 % 0.0 mm
20:50 14.2 °C 8.2 °C 1017.8 hPa Calm     67 % 0.0 mm
20:53 18.7 °C 7.2 °C 1017.8 hPa Calm     47 % 0.0 mm
20:58 18.6 °C 7.4 °C 1017.8 hPa SSW 1.9 km/h   48 % 0.0 mm
21:00 14.0 °C 8.2 °C 1017.8 hPa Calm     68 % 0.0 mm
21:03 18.5 °C 7.3 °C 1017.8 hPa Calm     48 % 0.0 mm
21:08 18.4 °C 7.5 °C 1017.8 hPa NE 1.9 km/h 1.9 km/h 49 % 0.0 mm
21:10 13.9 °C 8.3 °C 1017.8 hPa Calm     69 % 0.0 mm
21:13 18.3 °C 7.4 °C 1017.8 hPa WNW 2.3 km/h   49 % 0.0 mm
21:18 18.2 °C 7.3 °C 1017.8 hPa West 3.7 km/h 3.9 km/h 49 % 0.0 mm
21:20 13.8 °C 8.2 °C 1017.8 hPa Calm     69 % 0.0 mm
21:23 18.2 °C 7.3 °C 1017.8 hPa NW 1.9 km/h 1.9 km/h 49 % 0.0 mm
21:28 18.2 °C 7.3 °C 1017.8 hPa Calm     49 % 0.0 mm
21:30 13.7 °C 8.3 °C 1017.8 hPa Calm     70 % 0.0 mm
21:33 18.2 °C 7.3 °C 1017.8 hPa Calm     49 % 0.0 mm
21:38 18.1 °C 7.5 °C 1017.8 hPa Calm     50 % 0.0 mm
21:40 13.6 °C 8.2 °C 1017.8 hPa Calm     70 % 0.0 mm
21:43 18.0 °C 7.4 °C 1017.8 hPa NW 3.7 km/h 3.7 km/h 50 % 0.0 mm
21:48 17.9 °C 7.3 °C 1017.8 hPa Calm     50 % 0.0 mm
21:50 13.5 °C 8.3 °C 1017.8 hPa Calm     71 % 0.0 mm
21:53 17.9 °C 7.6 °C 1017.8 hPa Calm     51 % 0.0 mm
21:58 17.8 °C 7.8 °C 1017.8 hPa Calm     52 % 0.0 mm
22:00 13.4 °C 8.2 °C 1017.8 hPa Calm     71 % 0.0 mm
22:03 17.8 °C 7.8 °C 1017.8 hPa Calm     52 % 0.0 mm
22:08 17.7 °C 8.0 °C 1017.8 hPa Calm     53 % 0.0 mm
22:10 13.4 °C 8.2 °C 1017.8 hPa Calm   1.6 km/h 71 % 0.0 mm
22:13 17.7 °C 8.6 °C 1017.8 hPa Calm     55 % 0.0 mm
22:18 17.5 °C 8.3 °C 1017.8 hPa Calm     55 % 0.0 mm
22:20 13.4 °C 8.4 °C 1017.8 hPa Calm     72 % 0.0 mm
22:23 17.1 °C 7.7 °C 1017.8 hPa Calm     54 % 0.0 mm
22:28 17.1 °C 7.7 °C 1017.8 hPa Calm     54 % 0.0 mm
22:30 13.4 °C 8.4 °C 1017.8 hPa Calm     72 % 0.0 mm
22:33 17.2 °C 8.1 °C 1017.8 hPa Calm     55 % 0.0 mm
22:38 17.1 °C 8.0 °C 1017.8 hPa Calm     55 % 0.0 mm
22:40 13.4 °C 8.4 °C 1017.8 hPa Calm     72 % 0.0 mm
22:43 17.1 °C 8.2 °C 1017.8 hPa Calm     56 % 0.0 mm
22:48 17.0 °C 8.4 °C 1017.8 hPa Calm     57 % 0.0 mm
22:50 13.4 °C 8.4 °C 1017.8 hPa Calm   1.6 km/h 72 % 0.0 mm
22:53 16.9 °C 8.8 °C 1017.8 hPa Calm     59 % 0.0 mm
22:58 16.7 °C 8.4 °C 1017.8 hPa Calm     58 % 0.0 mm
23:00 13.3 °C 8.6 °C 1017.8 hPa SSW 1.6 km/h 1.6 km/h 73 % 0.0 mm
23:03 16.7 °C 8.7 °C 1017.8 hPa WNW 2.6 km/h   59 % 0.0 mm
23:08 16.6 °C 8.8 °C 1017.8 hPa Calm     60 % 0.0 mm
23:10 13.3 °C 8.6 °C 1017.8 hPa Calm     73 % 0.0 mm
23:13 16.5 °C 8.7 °C 1017.8 hPa Calm     60 % 0.0 mm
23:18 16.5 °C 8.9 °C 1018.8 hPa Calm     61 % 0.0 mm
23:20 13.4 °C 8.7 °C 1017.8 hPa Calm     73 % 0.0 mm
23:23 16.5 °C 9.2 °C 1018.8 hPa Calm     62 % 0.0 mm
23:28 16.5 °C 9.2 °C 1018.8 hPa Calm     62 % 0.0 mm
23:30 13.5 °C 8.9 °C 1017.8 hPa Calm     74 % 0.0 mm
23:33 16.3 °C 9.0 °C 1018.8 hPa NNE 1.9 km/h 1.9 km/h 62 % 0.0 mm
23:38 16.2 °C 8.7 °C 1018.8 hPa ESE 3.7 km/h 3.7 km/h 61 % 0.0 mm
23:40 13.5 °C 8.8 °C 1017.8 hPa Calm   3.2 km/h 73 % 0.0 mm
23:43 16.2 °C 8.9 °C 1018.8 hPa Calm     62 % 0.0 mm
23:48 16.0 °C 8.5 °C 1017.8 hPa NE 1.9 km/h 1.9 km/h 61 % 0.0 mm
23:50 13.5 °C 8.9 °C 1017.8 hPa Calm   1.6 km/h 74 % 0.0 mm
23:53 15.9 °C 8.4 °C 1017.8 hPa Calm     61 % 0.0 mm
23:58 15.8 °C 8.3 °C 1017.8 hPa Calm     61 % 0.0 mm
Meteo Sesrovires
Elogis d' Weather Underground - 3.75 mb

Guio original per  Jim McMurry - jmcmurry@mwt.net Adaptat per a la plantilla per  Wim van der Kuil - Leuven-Template.eu

Trobareu la nostra informacio del temps tambe a:

Weather Underground

AWEKAS